KHNB/HNB METAR and TAF weather

Enter ICAO airport designator
Station Type Date Time Source
KHNB METAR 2021/08/04 17:56 UTC NOAA

KHNB 041756Z AUTO 01009KT 10SM BKN060 BKN080 27/13 A3012 RMK AO2 SLP196 T02670133 10272 20167 58003


Station Type Date Time Source
KHNB Decoded METAR 2021/08/04 17:56 UTC NOAA

Huntingburg, IN, United States (KHNB) 38-15N 086-57W
Aug 04, 2021 - 01:56 PM EDT / 2021.08.04 1756 UTC
Wind: from the N (010 degrees) at 10 MPH (9 KT):0
Visibility: 10 mile(s):0
Sky conditions: mostly cloudy
Temperature: 80.1 F (26.7 C)
Dew Point: 55.9 F (13.3 C)
Relative Humidity: 43%
Pressure (altimeter): 30.12 in. Hg (1019 hPa)
Pressure tendency: 0.01 inches (0.3 hPa) lower than three hours ago
ob: KHNB 041756Z AUTO 01009KT 10SM BKN060 BKN080 27/13 A3012 RMK AO2 SLP196 T02670133 10272 20167 58003
cycle: 18

Station Type Date Time Source
KHNB TAF 2021/08/04 18:21 UTC NOAA

TAF KHNB 041720Z 0418/0518 02007KT P6SM SCT070
FM050000 01005KT P6SM FEW070
FM050300 00000KT P6SM SKC

Example: see airport list